Terminal Aerodrome Forecast
Issued by NWS Blacksburg, VA

Home | Current Version | Previous Version | Text Only | Print | Product List | Glossary On
Versions: 1 2 3 4 5 6 7 8 9 10 11 12 13 14 15 16 17 18 19 20 21 22 23 24 25 26 27 28
000
FTUS41 KRNK 191140
TAFLYH
TAF
KLYH 191140Z 1912/2012 05006KT P6SM OVC035
     FM191500 06015G25KT 4SM -RA BR OVC022
     FM192000 08020G30KT 2SM RA BR OVC012
     FM200100 13015G25KT 1SM -RA BR OVC007
     FM200400 19010KT 3SM BR OVC004=

USA.gov is the U.S. government's official web portal to all federal, state and local government web resources and services.